Time;durP1;ratioP1;P1;durP2;ratioP2;P2;SDS_P1;SDS_P2;PMS_P1;PMS_P2;Temp;Humidity;BMP_temperature;BMP_pressure;BME280_temperature;BME280_humidity;BME280_pressure;Samples;Min_cycle;Max_cycle;Signal;HPM_P1;HPM_P2
2022/12/24 00:01:04;;;;;;;13.32;11.95;;;;;;;19.68;49.06;100990.81;4773116;30;20055;-49
2022/12/24 00:03:32;;;;;;;12.13;10.85;;;;;;;19.69;48.94;100979.97;4772838;30;20055;-49
2022/12/24 00:06:07;;;;;;;12.35;11.02;;;;;;;19.69;49.01;100976.44;4772578;30;20072;-47
2022/12/24 00:08:35;;;;;;;13.65;11.73;;;;;;;19.70;48.93;100972.75;4773071;30;20047;-47
2022/12/24 00:11:02;;;;;;;13.50;12.10;;;;;;;19.69;49.06;100965.69;4772526;30;20056;-48
2022/12/24 00:13:30;;;;;;;15.20;11.10;;;;;;;19.69;48.78;100971.91;4772658;30;20063;-47
2022/12/24 00:15:57;;;;;;;12.65;11.20;;;;;;;19.69;48.97;100988.03;4772856;30;20048;-48
2022/12/24 00:18:25;;;;;;;13.90;11.57;;;;;;;19.71;48.82;100990.56;4772490;30;20056;-46
2022/12/24 00:20:53;;;;;;;13.10;11.68;;;;;;;19.71;49.05;100998.63;4773257;29;20059;-47
2022/12/24 00:23:21;;;;;;;14.68;11.65;;;;;;;19.70;49.45;101016.59;4772753;30;20059;-46
2022/12/24 00:25:48;;;;;;;13.23;11.00;;;;;;;19.71;49.10;101036.22;4772569;30;20131;-44
2022/12/24 00:28:16;;;;;;;15.00;12.07;;;;;;;19.71;49.00;101030.88;4772842;30;20055;-46
2022/12/24 00:30:43;;;;;;;11.60;10.45;;;;;;;19.72;49.07;101028.03;4772314;30;20060;-45
2022/12/24 00:33:11;;;;;;;14.27;11.10;;;;;;;19.70;48.94;101037.22;4772264;30;20060;-46
2022/12/24 00:35:39;;;;;;;12.20;10.88;;;;;;;19.72;49.03;101036.09;4773133;30;20055;-50
2022/12/24 00:38:07;;;;;;;16.77;11.80;;;;;;;19.71;48.93;101012.91;4771183;30;20499;-49
2022/12/24 00:40:35;;;;;;;12.85;10.57;;;;;;;19.72;49.05;101025.34;4772580;30;20043;-50
2022/12/24 00:43:02;;;;;;;12.35;11.13;;;;;;;19.71;48.78;101015.59;4772160;30;20051;-48
2022/12/24 00:45:29;;;;;;;12.38;10.88;;;;;;;19.72;49.04;100978.84;4768482;30;20381;-51
2022/12/24 00:47:57;;;;;;;12.95;10.80;;;;;;;19.70;48.86;100988.88;4771412;30;20062;-50
2022/12/24 00:50:24;;;;;;;14.77;11.90;;;;;;;19.71;49.25;101006.69;4772119;30;20044;-50
2022/12/24 00:52:51;;;;;;;12.40;11.10;;;;;;;19.71;49.08;101022.81;4771170;30;20495;-49
2022/12/24 00:55:19;;;;;;;14.48;12.13;;;;;;;19.71;49.22;101022.81;4772287;30;20047;-51
2022/12/24 00:57:46;;;;;;;11.75;10.40;;;;;;;19.71;49.21;100995.94;4771849;30;20063;-47
2022/12/24 01:00:16;;;;;;;16.13;11.77;;;;;;;19.70;49.12;100988.88;4771642;30;20047;-49
2022/12/24 01:02:43;;;;;;;13.70;12.10;;;;;;;19.69;49.01;100992.56;4772065;30;20051;-48
2022/12/24 01:05:11;;;;;;;13.48;11.18;;;;;;;19.68;48.85;101013.16;4771918;30;20062;-49
2022/12/24 01:07:43;;;;;;;13.45;11.90;;;;;;;19.68;48.76;101018.53;4771726;30;20066;-47
2022/12/24 01:10:14;;;;;;;13.07;11.65;;;;;;;19.68;48.84;101039.16;4772330;30;20062;-48
2022/12/24 01:12:41;;;;;;;12.13;10.82;;;;;;;19.67;48.79;101032.94;4771685;30;20048;-48
2022/12/24 01:15:10;;;;;;;16.45;11.35;;;;;;;19.68;48.79;101033.78;4771585;30;20068;-49
2022/12/24 01:17:37;;;;;;;12.98;11.55;;;;;;;19.67;48.88;101037.47;4771780;30;20055;-47
2022/12/24 01:20:07;;;;;;;13.07;11.00;;;;;;;19.67;48.69;101040.16;4771593;30;20048;-46
2022/12/24 01:22:34;;;;;;;15.10;11.77;;;;;;;19.66;48.54;100988.28;4771581;30;20062;-48
2022/12/24 01:25:02;;;;;;;12.68;11.10;;;;;;;19.66;48.64;100996.34;4772000;30;20056;-51
2022/12/24 01:27:29;;;;;;;15.93;11.80;;;;;;;19.67;48.63;101016.00;4771096;30;20076;-47
2022/12/24 01:29:57;;;;;;;11.80;10.60;;;;;;;19.66;48.63;101025.88;4771329;30;20051;-48
2022/12/24 01:32:24;;;;;;;13.55;11.23;;;;;;;19.66;48.63;101057.25;4771683;30;20059;-47
2022/12/24 01:34:51;;;;;;;12.88;11.40;;;;;;;19.67;48.73;101050.91;4771292;30;20055;-47
2022/12/24 01:37:19;;;;;;;14.02;12.02;;;;;;;19.66;48.73;101068.84;4771632;30;20411;-47
2022/12/24 01:39:46;;;;;;;12.80;11.50;;;;;;;19.66;48.68;101078.75;4771061;30;20484;-48
2022/12/24 01:45:41;;;;;;;14.20;11.15;;;;;;;19.65;48.62;101080.59;4770551;30;20483;-47
2022/12/24 01:48:21;;;;;;;12.90;11.38;;;;;;;19.65;48.60;101075.22;4770783;30;20645;-47
2022/12/24 01:50:56;;;;;;;11.98;10.70;;;;;;;19.66;48.69;101081.44;4771215;30;20052;-50
2022/12/24 01:53:24;;;;;;;12.93;11.25;;;;;;;19.64;48.53;101073.50;4771345;30;20392;-48
2022/12/24 01:55:52;;;;;;;12.57;10.77;;;;;;;19.64;48.50;101081.53;4771044;30;20059;-48
2022/12/24 01:58:23;;;;;;;13.13;11.70;;;;;;;19.64;48.45;101080.69;4770880;30;20399;-48
2022/12/24 02:00:50;;;;;;;12.90;11.60;;;;;;;19.64;48.53;101089.59;4769986;30;20487;-47
2022/12/24 02:03:18;;;;;;;12.65;10.55;;;;;;;19.64;48.61;101097.66;4771003;30;20048;-47
2022/12/24 02:05:47;;;;;;;13.75;11.82;;;;;;;19.64;48.61;101086.91;4770804;30;20078;-48
2022/12/24 02:08:16;;;;;;;13.77;10.85;;;;;;;19.63;48.59;101106.69;4770662;30;20047;-51
2022/12/24 02:10:45;;;;;;;12.65;11.25;;;;;;;19.63;48.44;101106.69;4771149;30;20052;-47
2022/12/24 02:13:16;;;;;;;13.35;11.45;;;;;;;19.63;48.46;101112.06;4770671;30;20058;-47
2022/12/24 02:16:18;;;;;;;12.73;10.95;;;;;;;19.63;48.56;101116.59;4770661;30;20464;-48
2022/12/24 02:18:56;;;;;;;12.32;10.98;;;;;;;19.63;48.70;101117.44;4770317;30;20432;-51
2022/12/24 02:21:32;;;;;;;14.60;11.63;;;;;;;19.63;48.78;101119.28;4770878;30;20052;-47
2022/12/24 02:24:11;;;;;;;11.50;10.25;;;;;;;19.62;48.55;101126.50;4770450;30;20523;-47
2022/12/24 02:27:14;;;;;;;12.02;10.68;;;;;;;19.61;48.51;101127.47;4770362;30;20055;-49
2022/12/24 02:29:47;;;;;;;11.70;10.50;;;;;;;19.62;48.59;101104.16;4770469;30;20510;-51
2022/12/24 02:32:41;;;;;;;20.10;12.13;;;;;;;19.61;48.75;101087.19;4770904;30;20059;-46
2022/12/24 02:35:37;;;;;;;11.15;9.95;;;;;;;19.62;48.59;101096.94;4770820;30;20420;-52
2022/12/24 02:38:26;;;;;;;11.90;10.70;;;;;;;19.62;48.73;101105.00;4769823;30;20066;-47
2022/12/24 02:41:09;;;;;;;10.63;9.52;;;;;;;19.62;48.61;101096.94;4769865;30;20047;-49
2022/12/24 02:43:40;;;;;;;13.05;11.05;;;;;;;19.62;48.56;101102.31;4770041;30;20066;-47
2022/12/24 02:46:19;;;;;;;14.15;11.50;;;;;;;19.62;48.90;101101.47;4769533;30;20043;-51
2022/12/24 02:48:48;;;;;;;11.98;10.77;;;;;;;19.61;48.71;101097.94;4770074;30;20058;-51
2022/12/24 02:51:15;;;;;;;13.93;10.40;;;;;;;19.62;48.69;101091.56;4770304;30;20051;-47
2022/12/24 02:53:43;;;;;;;12.23;10.93;;;;;;;19.61;48.68;101092.56;4770639;30;20074;-48
2022/12/24 02:56:30;;;;;;;14.40;10.95;;;;;;;19.62;48.71;101110.38;4770092;30;20634;-48
2022/12/24 02:59:06;;;;;;;12.75;10.75;;;;;;;19.62;48.66;101105.00;4770271;30;20060;-50
2022/12/24 03:01:55;;;;;;;12.73;11.43;;;;;;;19.62;48.70;101104.16;4770232;30;20056;-48
2022/12/24 03:04:45;;;;;;;12.00;10.52;;;;;;;19.61;48.79;101106.00;4770193;30;20067;-47
2022/12/24 03:07:31;;;;;;;10.15;9.07;;;;;;;19.63;48.88;101111.22;4770644;30;20047;-51
2022/12/24 03:10:16;;;;;;;12.65;10.60;;;;;;;19.61;48.82;101106.00;4770175;30;20052;-48
2022/12/24 03:12:48;;;;;;;11.82;9.63;;;;;;;19.62;48.77;101096.94;4770113;30;20521;-49
2022/12/24 03:15:19;;;;;;;11.55;10.35;;;;;;;19.61;48.85;101075.56;4771647;30;20483;-49
2022/12/24 03:17:48;;;;;;;14.32;11.45;;;;;;;19.61;48.96;101054.09;4773798;30;20059;-47
2022/12/24 03:20:24;;;;;;;12.50;11.30;;;;;;;19.61;48.79;101054.09;4773461;30;20056;-46
2022/12/24 03:22:52;;;;;;;11.73;10.57;;;;;;;19.61;49.11;101059.47;4774165;30;20056;-51
2022/12/24 03:25:23;;;;;;;11.73;10.20;;;;;;;19.60;49.00;101053.22;4773737;30;20078;-51
2022/12/24 03:27:51;;;;;;;13.50;10.77;;;;;;;19.61;48.95;101060.34;4773402;30;20062;-51
2022/12/24 03:30:19;;;;;;;11.60;10.35;;;;;;;19.60;48.95;101058.56;4773430;30;20411;-52
2022/12/24 03:32:46;;;;;;;14.18;11.48;;;;;;;19.60;49.12;101058.56;4773454;30;20056;-48
2022/12/24 03:35:14;;;;;;;12.10;10.57;;;;;;;19.60;48.99;101042.47;4773229;30;20066;-52
2022/12/24 03:37:41;;;;;;;13.52;10.38;;;;;;;19.60;48.91;101055.03;4773364;30;20062;-47
2022/12/24 03:40:09;;;;;;;14.18;11.13;;;;;;;19.60;48.99;101077.38;4773356;30;20047;-48
2022/12/24 03:42:37;;;;;;;11.68;10.32;;;;;;;19.60;49.01;101087.28;4773108;30;20055;-49
2022/12/24 03:45:05;;;;;;;11.65;10.45;;;;;;;19.60;49.00;101090.81;4773070;30;20495;-47
2022/12/24 03:47:32;;;;;;;13.30;10.65;;;;;;;19.60;49.14;101089.97;4772023;30;20059;-47
2022/12/24 03:49:59;;;;;;;11.57;9.93;;;;;;;19.60;49.00;101082.75;4773103;30;20352;-48
2022/12/24 03:52:27;;;;;;;14.18;10.40;;;;;;;19.58;48.95;101082.03;4772974;30;20048;-47
2022/12/24 03:54:54;;;;;;;13.43;10.43;;;;;;;19.59;48.87;101093.63;4773058;30;20403;-48
2022/12/24 03:57:22;;;;;;;12.10;10.38;;;;;;;19.60;48.82;101081.91;4773231;30;20415;-48
2022/12/24 03:59:49;;;;;;;12.38;10.35;;;;;;;19.59;49.00;101059.56;4773151;30;20062;-47
2022/12/24 04:02:17;;;;;;;11.52;9.57;;;;;;;19.59;49.06;101061.41;4773175;30;20047;-49
2022/12/24 04:04:44;;;;;;;11.48;10.13;;;;;;;19.59;49.05;101075.69;4773321;30;20060;-49
2022/12/24 04:07:11;;;;;;;11.63;10.43;;;;;;;19.60;48.94;101068.47;4772514;30;20058;-47
2022/12/24 04:09:39;;;;;;;11.65;10.45;;;;;;;19.59;49.05;101062.25;4773218;30;20408;-49
2022/12/24 04:12:07;;;;;;;11.73;10.43;;;;;;;19.59;49.04;101062.25;4772973;29;20072;-49
2022/12/24 04:14:34;;;;;;;12.07;10.63;;;;;;;19.60;49.34;101074.69;4772699;30;20487;-47
2022/12/24 04:17:01;;;;;;;11.05;9.95;;;;;;;19.61;49.26;101070.19;4772629;30;20052;-46
2022/12/24 04:19:29;;;;;;;13.70;10.32;;;;;;;19.60;49.29;101066.63;4773385;30;20067;-49
2022/12/24 04:21:56;;;;;;;9.98;8.95;;;;;;;19.60;49.21;101050.53;4772346;30;20047;-49
2022/12/24 04:24:23;;;;;;;12.35;10.60;;;;;;;19.60;49.27;101052.34;4772371;30;20055;-51
2022/12/24 04:26:51;;;;;;;14.23;10.77;;;;;;;19.59;49.19;101054.19;4771607;30;20048;-48
2022/12/24 04:29:18;;;;;;;11.88;10.15;;;;;;;19.59;49.27;101048.81;4772814;30;20056;-48
2022/12/24 04:31:45;;;;;;;13.43;10.60;;;;;;;19.60;49.28;101049.66;4772776;30;20047;-51
2022/12/24 04:34:13;;;;;;;11.45;10.00;;;;;;;19.59;49.28;101047.97;4786314;29;20055;-47
2022/12/24 04:36:40;;;;;;;11.75;9.77;;;;;;;19.58;49.28;101044.44;4771267;30;20055;-47
2022/12/24 04:39:07;;;;;;;10.77;9.68;;;;;;;19.60;49.21;101049.66;4772268;30;20499;-47
2022/12/24 04:41:35;;;;;;;12.93;10.85;;;;;;;19.58;49.33;101044.44;4772597;30;20055;-48
2022/12/24 04:44:02;;;;;;;11.73;10.23;;;;;;;19.59;49.49;101034.53;4772409;30;20071;-50
2022/12/24 04:46:29;;;;;;;11.02;9.73;;;;;;;19.59;49.26;101035.41;4772434;30;20052;-49
2022/12/24 04:48:57;;;;;;;12.52;10.32;;;;;;;19.59;49.43;101048.81;4770321;30;20419;-48
2022/12/24 04:51:26;;;;;;;11.30;10.05;;;;;;;19.58;49.15;101031.00;4770718;30;20420;-51
2022/12/24 04:53:55;;;;;;;11.30;9.98;;;;;;;19.58;49.51;101036.38;4772381;30;20052;-48
2022/12/24 04:56:28;;;;;;;11.15;10.05;;;;;;;19.58;49.36;101028.31;4771737;30;20059;-47
2022/12/24 04:58:57;;;;;;;10.00;9.00;;;;;;;19.58;49.39;101039.06;4772528;30;20060;-48
2022/12/24 05:01:27;;;;;;;10.95;9.73;;;;;;;19.58;49.33;101028.31;4772287;30;20415;-49
2022/12/24 05:03:55;;;;;;;11.40;10.20;;;;;;;19.58;49.44;101028.31;4771955;30;20059;-48
2022/12/24 05:06:26;;;;;;;12.65;11.05;;;;;;;19.59;49.49;101027.34;4772164;30;20078;-47
2022/12/24 05:08:55;;;;;;;10.88;9.77;;;;;;;19.58;49.31;101006.84;4771787;30;20067;-47
2022/12/24 05:11:23;;;;;;;11.82;10.15;;;;;;;19.57;49.39;101023.94;4771800;30;20048;-47
2022/12/24 05:13:50;;;;;;;11.82;10.63;;;;;;;19.57;49.62;101023.94;4771674;30;20054;-48
2022/12/24 05:16:20;;;;;;;11.07;9.98;;;;;;;19.57;49.54;101017.69;4771995;30;20043;-48
2022/12/24 05:18:48;;;;;;;10.50;9.40;;;;;;;19.56;49.68;101019.53;4771310;30;20060;-49
2022/12/24 05:21:20;;;;;;;10.70;9.60;;;;;;;19.57;49.61;101009.63;4771446;30;20062;-47
2022/12/24 05:26:48;;;;;;;11.73;10.00;;;;;;;19.58;49.58;100997.94;4771749;30;20407;-50
2022/12/24 05:29:15;;;;;;;11.93;10.52;;;;;;;19.57;49.63;100999.78;4753838;30;20059;-50
2022/12/24 05:31:44;;;;;;;11.55;10.27;;;;;;;19.57;49.81;100993.53;4753663;30;20048;-50
2022/12/24 05:34:13;;;;;;;10.60;9.50;;;;;;;19.57;49.85;100989.03;4753912;30;20056;-48
2022/12/24 05:36:42;;;;;;;11.90;10.18;;;;;;;19.58;49.71;100989.88;4752505;30;20060;-47
2022/12/24 05:39:15;;;;;;;11.23;10.13;;;;;;;19.57;49.67;100999.78;4753191;30;20056;-51
2022/12/24 05:41:46;;;;;;;11.15;9.98;;;;;;;19.58;49.67;101001.47;4753792;30;20063;-51
2022/12/24 05:44:14;;;;;;;11.68;9.48;;;;;;;19.58;49.65;101004.16;4753524;30;20059;-48
2022/12/24 05:46:43;;;;;;;10.88;9.73;;;;;;;19.57;49.53;101005.16;4753892;30;20060;-48
2022/12/24 05:49:11;;;;;;;11.18;9.98;;;;;;;19.58;49.70;101008.69;4760337;30;20043;-51
2022/12/24 05:51:39;;;;;;;11.40;9.52;;;;;;;19.57;49.60;101021.25;4770485;30;20048;-49
2022/12/24 05:54:07;;;;;;;12.45;10.40;;;;;;;19.58;49.62;101035.53;4771247;30;20056;-49
2022/12/24 05:56:34;;;;;;;11.48;10.07;;;;;;;19.58;49.73;101041.75;4770514;30;20067;-53
2022/12/24 05:59:02;;;;;;;11.48;10.27;;;;;;;19.57;49.58;101041.88;4771262;30;20066;-47
2022/12/24 06:01:29;;;;;;;12.82;10.55;;;;;;;19.58;49.63;101043.59;4770870;30;20484;-47
2022/12/24 06:03:57;;;;;;;12.25;10.57;;;;;;;19.57;49.60;101037.38;4770816;30;20059;-47
2022/12/24 06:06:26;;;;;;;10.70;9.70;;;;;;;19.57;49.64;101037.38;4771113;30;20056;-47
2022/12/24 06:08:55;;;;;;;11.15;9.95;;;;;;;19.57;49.78;101026.63;4770251;30;20059;-49
2022/12/24 06:11:25;;;;;;;10.88;9.77;;;;;;;19.57;49.78;101037.38;4769628;30;20059;-49
2022/12/24 06:13:52;;;;;;;10.73;9.63;;;;;;;19.57;49.66;101037.38;4771043;30;20079;-48
2022/12/24 06:16:21;;;;;;;10.80;9.73;;;;;;;19.57;49.84;101039.19;4770607;30;20067;-50
2022/12/24 06:18:49;;;;;;;10.77;9.68;;;;;;;19.58;49.82;101065.06;4770532;30;20056;-48
2022/12/24 06:21:17;;;;;;;10.52;9.38;;;;;;;19.58;49.98;101081.19;4770878;30;20443;-47
2022/12/24 06:23:45;;;;;;;10.88;9.45;;;;;;;19.58;49.73;101083.88;4770634;30;20404;-48
2022/12/24 06:26:15;;;;;;;11.45;10.25;;;;;;;19.57;49.85;101085.72;4784166;30;20048;-48
2022/12/24 06:28:43;;;;;;;12.55;10.02;;;;;;;19.58;49.98;101100.84;4770053;30;20055;-47
2022/12/24 06:31:13;;;;;;;11.27;9.65;;;;;;;19.58;50.13;101078.50;4770490;30;20053;-51
2022/12/24 06:33:41;;;;;;;11.50;9.90;;;;;;;19.58;50.08;101071.28;4770447;30;20054;-49
2022/12/24 06:36:15;;;;;;;11.00;9.70;;;;;;;19.57;50.03;101066.91;4770718;30;20056;-51
2022/12/24 06:38:45;;;;;;;16.75;10.75;;;;;;;19.57;50.22;101058.84;4770340;30;20059;-52
2022/12/24 06:41:13;;;;;;;11.10;9.93;;;;;;;19.58;50.20;101040.91;4770143;30;20051;-48
2022/12/24 06:43:48;;;;;;;11.80;10.60;;;;;;;19.58;50.10;101057.03;4770608;30;20060;-46
2022/12/24 06:46:16;;;;;;;12.13;9.73;;;;;;;19.58;50.07;101075.81;4770249;30;20430;-47
2022/12/24 06:48:44;;;;;;;11.77;10.57;;;;;;;19.57;49.99;101080.34;4770253;30;20051;-49
2022/12/24 06:51:13;;;;;;;13.82;10.52;;;;;;;19.58;49.99;101086.56;4768588;30;20044;-48
2022/12/24 06:53:40;;;;;;;10.65;9.55;;;;;;;19.58;49.99;101108.03;4770330;30;20055;-46
2022/12/24 06:56:10;;;;;;;12.00;10.80;;;;;;;19.58;49.93;101108.91;4769981;30;20075;-46
2022/12/24 06:58:39;;;;;;;11.90;10.70;;;;;;;19.58;49.95;101121.47;4770593;30;20428;-48
2022/12/24 07:01:09;;;;;;;12.40;11.18;;;;;;;19.58;49.84;101125.00;4770062;30;20062;-48
2022/12/24 07:03:37;;;;;;;12.95;10.85;;;;;;;19.58;49.90;101122.31;4770049;30;20059;-48
2022/12/24 07:06:04;;;;;;;10.90;9.88;;;;;;;19.57;49.84;101107.19;4770597;30;20403;-51
2022/12/24 07:08:32;;;;;;;13.90;10.65;;;;;;;19.58;49.92;101106.22;4770195;30;20058;-49
2022/12/24 07:11:00;;;;;;;11.25;10.05;;;;;;;19.57;49.84;101109.88;4770287;30;20059;-47
2022/12/24 07:13:28;;;;;;;11.82;10.00;;;;;;;19.56;49.81;101105.47;4770463;30;20047;-48
2022/12/24 07:16:03;;;;;;;12.38;10.65;;;;;;;19.58;49.86;101108.91;4770027;30;20510;-47
2022/12/24 07:18:30;;;;;;;12.95;10.73;;;;;;;19.58;49.82;101102.69;4770043;30;20116;-50
2022/12/24 07:20:58;;;;;;;13.18;10.52;;;;;;;19.56;49.97;101086.66;4770291;30;20067;-49
2022/12/24 07:23:26;;;;;;;11.68;10.35;;;;;;;19.57;49.83;101082.16;4769733;30;20060;-47
2022/12/24 07:25:53;;;;;;;11.48;10.27;;;;;;;19.57;49.85;101093.78;4770298;30;20079;-48
2022/12/24 07:28:20;;;;;;;12.07;10.27;;;;;;;19.56;49.84;101108.16;4769946;30;20052;-50
2022/12/24 07:30:57;;;;;;;12.25;10.23;;;;;;;19.57;50.02;101123.31;4769956;30;20056;-48
2022/12/24 07:33:25;;;;;;;11.10;10.00;;;;;;;19.57;50.14;101120.63;4769893;30;20059;-47
2022/12/24 07:36:00;;;;;;;12.50;11.07;;;;;;;19.57;49.75;101098.25;4770358;30;20054;-47
2022/12/24 07:38:28;;;;;;;11.18;10.02;;;;;;;19.56;49.89;101097.41;4769992;30;20119;-48
2022/12/24 07:40:56;;;;;;;11.80;10.70;;;;;;;19.57;49.86;101095.56;4770437;30;20072;-48
2022/12/24 07:43:25;;;;;;;12.75;10.75;;;;;;;19.57;49.71;101098.25;4769821;30;20122;-48
2022/12/24 07:45:56;;;;;;;11.20;9.77;;;;;;;19.57;50.13;101096.47;4769329;30;20051;-49
2022/12/24 07:48:26;;;;;;;11.68;10.35;;;;;;;19.57;49.79;101107.19;4769532;30;20408;-49
2022/12/24 07:50:53;;;;;;;15.98;11.15;;;;;;;19.57;49.83;101111.69;4769113;30;20060;-49
2022/12/24 07:53:21;;;;;;;11.63;10.20;;;;;;;19.56;49.89;101110.84;4768591;30;20059;-48
2022/12/24 07:55:48;;;;;;;12.35;11.05;;;;;;;19.55;49.60;101122.56;4769475;30;20062;-47
2022/12/24 07:58:16;;;;;;;13.32;11.90;;;;;;;19.55;49.48;101119.88;4770012;30;20063;-48
2022/12/24 08:00:43;;;;;;;13.25;10.77;;;;;;;19.56;50.14;101113.53;4769929;30;20063;-47
2022/12/24 08:03:20;;;;;;;11.82;10.57;;;;;;;19.56;50.29;101108.16;4772681;30;20055;-52
2022/12/24 08:05:48;;;;;;;17.98;16.08;;;;;;;19.55;49.30;101105.59;4773322;30;20060;-48
2022/12/24 08:08:15;;;;;;;18.92;14.57;;;;;;;19.50;49.38;101100.63;4772551;30;20066;-47
2022/12/24 08:10:44;;;;;;;14.95;12.48;;;;;;;19.51;50.09;101110.38;4772633;30;20056;-49
2022/12/24 08:13:13;;;;;;;16.08;12.13;;;;;;;19.51;50.13;101126.47;4773560;29;20063;-47
2022/12/24 08:15:41;;;;;;;13.07;11.63;;;;;;;19.52;49.98;101129.03;4772394;30;20079;-47
2022/12/24 08:18:09;;;;;;;12.65;11.35;;;;;;;19.55;50.02;101129.78;4772495;30;20062;-47
2022/12/24 08:20:38;;;;;;;13.15;11.77;;;;;;;19.54;49.79;101125.38;4772155;30;20060;-50
2022/12/24 08:23:07;;;;;;;13.10;11.75;;;;;;;19.55;49.98;101130.63;4772844;30;20399;-49
2022/12/24 08:25:35;;;;;;;13.38;11.43;;;;;;;19.55;49.92;101124.41;4772877;30;20056;-49
2022/12/24 08:28:04;;;;;;;16.35;11.35;;;;;;;19.55;49.88;101133.31;4772148;30;20062;-49
2022/12/24 08:30:31;;;;;;;12.77;11.27;;;;;;;19.56;50.08;101163.69;4772869;30;20510;-48
2022/12/24 08:32:59;;;;;;;11.65;10.32;;;;;;;19.56;50.08;101171.75;4772236;30;20052;-49
2022/12/24 08:35:26;;;;;;;15.18;11.05;;;;;;;19.56;50.16;101175.28;4772425;30;20047;-47
2022/12/24 08:37:53;;;;;;;12.82;10.73;;;;;;;19.56;50.07;101174.44;4772807;30;20502;-48
2022/12/24 08:40:21;;;;;;;13.88;11.32;;;;;;;19.57;50.09;101182.38;4772511;30;20052;-47
2022/12/24 08:42:48;;;;;;;19.67;15.18;;;;;;;19.56;49.52;101177.97;4772196;30;20048;-48
2022/12/24 08:45:16;;;;;;;16.45;12.77;;;;;;;19.55;49.73;101181.66;4771717;30;20078;-47
2022/12/24 08:47:44;;;;;;;13.65;11.45;;;;;;;19.54;49.87;101177.25;4772159;30;20055;-49
2022/12/24 08:50:12;;;;;;;13.38;11.90;;;;;;;19.55;50.06;101187.03;4772488;30;20055;-49
2022/12/24 08:52:39;;;;;;;21.13;18.85;;;;;;;19.54;49.24;101192.53;4770685;30;20383;-47
2022/12/24 08:55:07;;;;;;;21.13;18.75;;;;;;;19.51;49.20;101199.84;4770868;30;20058;-47
2022/12/24 08:57:36;;;;;;;19.52;15.07;;;;;;;19.50;49.86;101221.47;4771607;30;20056;-48
2022/12/24 09:00:05;;;;;;;16.25;12.68;;;;;;;19.51;49.81;101217.78;4771727;30;20047;-47
2022/12/24 09:02:33;;;;;;;15.88;14.18;;;;;;;19.52;49.85;101225.72;4771944;30;20059;-47
2022/12/24 09:05:00;;;;;;;14.80;13.15;;;;;;;19.54;49.85;101227.44;4772103;30;20059;-47
2022/12/24 09:07:28;;;;;;;14.95;13.40;;;;;;;19.54;49.83;101233.66;4771809;30;20052;-47
2022/12/24 09:09:55;;;;;;;15.00;13.15;;;;;;;19.54;49.60;101233.66;4771693;30;20544;-49
2022/12/24 09:12:23;;;;;;;17.05;14.23;;;;;;;19.55;49.86;101243.41;4768986;30;20048;-48
2022/12/24 09:14:51;;;;;;;19.00;14.98;;;;;;;19.55;49.93;101254.16;4771220;30;20056;-47
2022/12/24 09:17:18;;;;;;;19.55;14.70;;;;;;;19.56;49.53;101239.75;4771336;30;20059;-50
2022/12/24 09:19:45;;;;;;;16.65;14.63;;;;;;;19.56;49.52;101247.81;4771591;30;20062;-48
2022/12/24 09:22:13;;;;;;;19.38;14.60;;;;;;;19.57;49.53;101254.03;4771972;30;20052;-48
2022/12/24 09:24:41;;;;;;;21.38;13.75;;;;;;;19.57;49.47;101241.47;4771654;30;20048;-48
2022/12/24 09:27:08;;;;;;;16.02;13.27;;;;;;;19.58;49.71;101242.31;4771660;30;20051;-48
2022/12/24 09:29:35;;;;;;;18.48;13.80;;;;;;;19.58;49.79;101261.97;4770263;30;20051;-48
2022/12/24 09:32:03;;;;;;;19.83;13.45;;;;;;;19.59;49.99;101244.88;4771469;30;20388;-48
2022/12/24 09:34:30;;;;;;;17.35;13.30;;;;;;;19.60;49.89;101246.56;4771817;30;20059;-46
2022/12/24 09:36:59;;;;;;;16.88;13.55;;;;;;;19.61;50.07;101253.72;4771074;30;20387;-55
2022/12/24 09:39:26;;;;;;;15.02;13.02;;;;;;;19.61;50.01;101250.16;4771050;30;20043;-55
2022/12/24 09:42:12;;;;;;;16.38;13.88;;;;;;;19.61;50.22;101247.47;4771348;30;20062;-52
2022/12/24 09:44:47;;;;;;;14.10;12.63;;;;;;;19.61;50.22;101261.78;4771145;30;20043;-54
2022/12/24 09:47:24;;;;;;;13.80;12.30;;;;;;;19.62;50.19;101268.00;4771267;30;20055;-54
2022/12/24 09:49:55;;;;;;;16.17;13.43;;;;;;;19.60;49.96;101265.38;4771355;30;20055;-54
2022/12/24 09:52:32;;;;;;;15.63;12.50;;;;;;;19.60;50.02;101261.84;4770866;30;20052;-54
2022/12/24 09:55:27;;;;;;;16.33;12.35;;;;;;;19.60;50.09;101268.06;4767545;30;20431;-55
2022/12/24 09:57:57;;;;;;;15.15;12.88;;;;;;;19.60;49.97;101276.13;4769833;30;20070;-55
2022/12/24 10:00:28;;;;;;;17.40;13.05;;;;;;;19.59;49.90;101282.47;4770835;30;20419;-55
2022/12/24 10:02:56;;;;;;;16.35;12.70;;;;;;;19.59;49.83;101287.84;4769184;30;20052;-54
2022/12/24 10:05:38;;;;;;;13.80;12.48;;;;;;;19.58;49.91;101275.41;4770337;30;20051;-55
2022/12/24 10:08:30;;;;;;;14.82;13.15;;;;;;;19.59;49.90;101260.13;4770148;30;20428;-53
2022/12/24 10:11:07;;;;;;;13.13;11.77;;;;;;;19.59;49.99;101249.41;4769495;30;20060;-54
2022/12/24 10:13:48;;;;;;;14.30;12.80;;;;;;;19.58;49.96;101253.06;4770317;30;20052;-53
2022/12/24 10:16:46;;;;;;;13.75;12.25;;;;;;;19.58;49.76;101256.59;4770376;30;20055;-53
2022/12/24 10:19:22;;;;;;;14.82;12.48;;;;;;;19.58;49.82;101240.50;4770328;30;20055;-54
2022/12/24 10:21:55;;;;;;;16.42;12.63;;;;;;;19.58;49.81;101250.38;4770056;30;20059;-56
2022/12/24 10:24:46;;;;;;;16.65;12.20;;;;;;;19.57;49.64;101252.22;4770204;30;20055;-52
2022/12/24 10:27:22;;;;;;;13.20;11.85;;;;;;;19.58;49.75;101258.44;4770130;30;20499;-55
2022/12/24 10:30:01;;;;;;;16.20;12.07;;;;;;;19.58;49.73;101255.75;4770041;30;20051;-55
2022/12/24 10:32:31;;;;;;;15.60;11.93;;;;;;;19.59;49.67;101273.56;4770316;30;20082;-55
2022/12/24 10:35:05;;;;;;;13.65;12.25;;;;;;;19.59;49.45;101268.19;4769909;30;20056;-55
2022/12/24 10:37:32;;;;;;;14.07;12.50;;;;;;;19.58;49.70;101270.03;4770423;30;20051;-55
2022/12/24 10:40:02;;;;;;;13.75;11.88;;;;;;;19.58;49.71;101274.56;4769877;30;20063;-53
2022/12/24 10:42:43;;;;;;;13.90;12.30;;;;;;;19.58;49.78;101271.88;4769860;30;20471;-55
2022/12/24 10:45:21;;;;;;;12.70;11.00;;;;;;;19.58;49.67;101277.25;4769742;30;20499;-55
2022/12/24 10:47:57;;;;;;;13.38;11.88;;;;;;;19.58;49.60;101275.41;4770143;30;20423;-55
2022/12/24 10:50:32;;;;;;;12.73;11.48;;;;;;;19.57;49.56;101279.06;4769789;30;20059;-53
2022/12/24 10:53:13;;;;;;;14.02;11.50;;;;;;;19.58;49.57;101279.94;4769777;30;20068;-54
2022/12/24 10:55:41;;;;;;;13.60;11.77;;;;;;;19.58;49.47;101286.16;4768241;30;20070;-54
2022/12/24 10:58:15;;;;;;;12.77;11.48;;;;;;;19.58;49.85;101274.56;4769753;30;20059;-51
2022/12/24 11:00:50;;;;;;;12.27;11.07;;;;;;;19.57;49.55;101275.50;4769749;30;20119;-53
2022/12/24 11:03:17;;;;;;;12.88;11.50;;;;;;;19.58;49.39;101274.56;4769099;30;20070;-55
2022/12/24 11:05:45;;;;;;;14.10;12.25;;;;;;;19.56;49.44;101282.72;4769810;30;20060;-54
2022/12/24 11:08:16;;;;;;;13.20;11.93;;;;;;;19.57;49.57;101276.38;4769556;30;20074;-54
2022/12/24 11:10:56;;;;;;;13.18;11.77;;;;;;;19.57;49.31;101262.06;4769941;30;20056;-55
2022/12/24 11:13:33;;;;;;;12.70;11.35;;;;;;;19.56;49.48;101255.00;4769600;30;20060;-52
2022/12/24 11:16:07;;;;;;;14.52;12.30;;;;;;;19.56;49.48;101261.22;4769594;30;20052;-52
2022/12/24 11:18:43;;;;;;;13.23;11.85;;;;;;;19.57;49.48;101259.41;4770024;30;20069;-52
2022/12/24 11:21:20;;;;;;;14.52;12.23;;;;;;;19.56;49.49;101255.84;4768622;30;20059;-51
2022/12/24 11:23:58;;;;;;;14.90;11.68;;;;;;;19.57;49.58;101257.59;4769351;30;20439;-55
2022/12/24 11:26:29;;;;;;;13.13;11.82;;;;;;;19.56;49.55;101260.38;4770038;30;20411;-55
2022/12/24 11:29:13;;;;;;;13.18;11.77;;;;;;;19.56;49.31;101258.53;4769246;30;20059;-51
2022/12/24 11:31:43;;;;;;;13.73;11.73;;;;;;;19.56;49.40;101258.53;4769453;30;20059;-52